createdAt,value
2023-11-23T05:15:16.668Z,29.98
2023-11-23T05:17:47.133Z,30.60
2023-11-23T05:20:49.211Z,30.88
2023-11-23T08:19:23.484Z,26.55
2023-11-23T08:22:04.148Z,22.15
2023-11-23T08:24:32.655Z,21.98
2023-11-23T08:27:00.135Z,23.02
2023-11-23T08:29:31.575Z,22.65
2023-11-23T08:31:59.995Z,22.27
2023-11-23T08:34:27.388Z,21.80
2023-11-23T08:36:56.068Z,22.35
2023-11-23T08:39:23.484Z,25.13
2023-11-23T08:41:51.895Z,21.73
2023-11-23T08:44:20.203Z,20.80
2023-11-23T08:46:47.499Z,20.95
2023-11-23T08:52:14.835Z,20.67
2023-11-23T08:54:49.898Z,20.75
2023-11-23T09:04:36.738Z,19.70
2023-11-23T09:07:11.897Z,19.55
2023-11-23T09:09:42.282Z,19.92
2023-11-23T09:12:09.757Z,19.55
2023-11-23T09:14:47.272Z,19.85
2023-11-23T09:17:22.709Z,19.38
2023-11-23T09:19:57.413Z,19.50
2023-11-23T09:23:13.224Z,18.70
2023-11-23T09:26:10.518Z,19.27
2023-11-23T09:57:16.636Z,20.02
2023-11-23T10:05:18.966Z,18.67
2023-11-23T10:07:48.324Z,18.63
2023-11-23T10:10:15.625Z,18.75
2023-11-23T10:13:00.315Z,21.15
2023-11-23T10:19:57.059Z,17.60
2023-11-23T10:23:24.314Z,18.23
2023-11-23T10:25:58.204Z,17.98
2023-11-23T10:28:47.721Z,18.60
2023-11-23T10:31:15.729Z,18.25
2023-11-23T10:34:14.156Z,17.85
2023-11-23T10:37:02.196Z,17.90
2023-11-23T10:39:33.953Z,16.98
2023-11-23T10:42:01.749Z,17.30
2023-11-23T10:44:31.254Z,17.33
2023-11-23T10:47:04.847Z,16.85
2023-11-23T10:49:36.848Z,16.65
2023-11-23T10:52:10.820Z,17.08
2023-11-23T10:54:38.557Z,16.98
2023-11-23T10:57:10.955Z,16.92
2023-11-23T10:59:43.300Z,16.63
2023-11-23T11:02:12.199Z,16.23
2023-11-23T11:05:00.861Z,16.50
2023-11-23T11:07:29.769Z,16.33
2023-11-23T11:10:08.576Z,16.23
2023-11-23T11:12:39.757Z,16.27
2023-11-23T11:15:13.487Z,16.13
2023-11-23T11:17:52.615Z,16.05
2023-11-23T11:20:33.564Z,16.38
2023-11-23T11:23:02.992Z,16.55
2023-11-23T11:25:44.998Z,17.13
2023-11-23T11:28:33.648Z,16.88
2023-11-23T11:31:43.080Z,16.80
2023-11-23T11:38:12.261Z,16.23
2023-11-23T11:40:52.326Z,15.73
2023-11-23T11:43:27.580Z,15.75
2023-11-23T11:45:55.139Z,16.27
2023-11-23T11:48:28.086Z,16.17
2023-11-23T11:50:58.920Z,16.23
2023-11-23T11:53:36.515Z,16.48
2023-11-23T11:56:05.671Z,16.67
2023-11-23T11:58:33.244Z,16.40
2023-11-23T12:01:01.496Z,16.33
2023-11-23T12:03:29.171Z,16.70
2023-11-23T12:05:56.886Z,16.17
2023-11-23T12:08:27.636Z,16.42
2023-11-23T12:11:00.402Z,16.38
2023-11-23T12:13:33.760Z,15.73
2023-11-23T12:16:13.385Z,16.10
2023-11-23T12:28:16.913Z,16.73
2023-11-23T12:29:11.273Z,15.88
2023-11-23T12:32:12.031Z,16.05
2023-11-23T13:22:12.944Z,18.38
2023-11-23T13:44:23.589Z,15.20
2023-11-23T14:23:11.398Z,15.63
2023-11-23T14:25:10.232Z,17.25
2023-11-23T14:26:33.994Z,15.70
2023-11-23T14:31:50.775Z,16.20
2023-11-23T14:40:02.453Z,15.70
2023-11-23T14:42:56.416Z,15.75
2023-11-23T14:56:06.322Z,15.90
2023-11-23T14:58:50.958Z,16.13
2023-11-23T15:14:08.202Z,17.23
2023-11-23T15:21:00.622Z,19.45
2023-11-23T15:23:34.647Z,16.42
2023-11-23T15:29:21.789Z,16.30
2023-11-23T15:32:11.660Z,16.70
2023-11-23T15:35:18.551Z,16.73
2023-11-23T15:38:07.040Z,16.60
2023-11-23T15:47:58.213Z,16.38
2023-11-23T15:48:02.201Z,16.33
2023-11-23T15:50:43.272Z,15.80
2023-11-23T16:51:30.666Z,18.27
2023-11-23T16:53:57.986Z,17.23
2023-11-23T20:38:28.402Z,17.23
2023-11-23T21:20:33.212Z,17.08
2023-11-23T21:23:01.403Z,17.20
2023-11-23T21:26:12.327Z,17.80
2023-11-23T21:28:39.776Z,18.02
